createdAt,value
2022-11-29T00:00:06.072Z,78.21
2022-11-29T00:00:16.077Z,77.91
2022-11-29T00:00:26.038Z,77.70
2022-11-29T00:00:35.981Z,77.59
2022-11-29T00:00:45.959Z,77.80
2022-11-29T00:00:55.998Z,77.80
2022-11-29T00:01:06.046Z,77.80
2022-11-29T00:01:16.015Z,77.70
2022-11-29T00:01:26.024Z,77.59
2022-11-29T00:01:35.987Z,77.59
2022-11-29T00:01:46.042Z,77.49
2022-11-29T00:01:56.141Z,77.49
2022-11-29T00:02:06.186Z,77.70
2022-11-29T00:02:16.159Z,77.91
2022-11-29T00:02:26.115Z,78.11
2022-11-29T00:02:36.124Z,78.11
2022-11-29T00:02:46.137Z,78.01
2022-11-29T00:02:56.251Z,78.01
2022-11-29T00:03:06.080Z,77.91
2022-11-29T00:03:16.052Z,77.91
2022-11-29T00:03:26.061Z,77.91
2022-11-29T00:03:36.086Z,77.70
2022-11-29T00:03:46.079Z,77.59
2022-11-29T00:03:56.021Z,77.49
2022-11-29T00:04:06.074Z,77.39
2022-11-29T00:04:16.049Z,77.18
2022-11-29T00:04:26.056Z,77.18
2022-11-29T00:04:36.024Z,77.18
2022-11-29T00:04:46.160Z,77.28
2022-11-29T00:04:56.007Z,77.28
2022-11-29T00:05:06.072Z,77.28
2022-11-29T00:05:16.031Z,77.18
2022-11-29T00:05:26.048Z,77.08
2022-11-29T00:05:36.051Z,77.18
2022-11-29T00:05:46.046Z,77.39
2022-11-29T00:05:56.037Z,77.28
2022-11-29T00:06:06.005Z,77.28
2022-11-29T00:06:15.977Z,77.18
2022-11-29T00:06:26.059Z,77.08
2022-11-29T00:06:35.977Z,77.08
2022-11-29T00:06:46.005Z,77.08
2022-11-29T00:06:55.957Z,77.18
2022-11-29T00:07:05.949Z,77.28
2022-11-29T00:07:16.019Z,77.28
2022-11-29T00:07:26.028Z,77.18
2022-11-29T00:07:36.090Z,77.49
2022-11-29T00:07:46.066Z,77.59
2022-11-29T00:07:56.093Z,77.70
2022-11-29T00:08:06.014Z,77.80
2022-11-29T00:08:16.007Z,78.11
2022-11-29T00:08:25.971Z,78.11
2022-11-29T00:08:36.081Z,78.11
2022-11-29T00:08:46.015Z,78.11
2022-11-29T00:08:56.039Z,78.11
2022-11-29T00:09:06.056Z,78.11
2022-11-29T00:09:16.052Z,78.01
2022-11-29T00:09:26.077Z,78.11
2022-11-29T00:09:36.036Z,78.21
2022-11-29T00:09:46.008Z,78.31
2022-11-29T00:09:56.102Z,78.21
2022-11-29T00:10:06.029Z,78.11
2022-11-29T00:10:16.083Z,78.11
2022-11-29T00:10:26.078Z,78.11
2022-11-29T00:10:35.998Z,78.21
2022-11-29T00:10:46.085Z,78.21
2022-11-29T00:10:56.005Z,78.21
2022-11-29T00:11:06.035Z,78.11
2022-11-29T00:11:15.975Z,78.01
2022-11-29T00:11:26.066Z,78.11
2022-11-29T00:11:36.051Z,78.31
2022-11-29T00:11:45.958Z,78.42
2022-11-29T00:11:56.061Z,78.73
2022-11-29T00:12:06.064Z,78.42
2022-11-29T00:12:15.992Z,78.11
2022-11-29T00:12:25.994Z,77.80
2022-11-29T00:12:36.055Z,77.80
2022-11-29T00:12:45.994Z,77.91
2022-11-29T00:12:56.072Z,78.01
2022-11-29T00:13:05.993Z,78.21
2022-11-29T00:13:16.075Z,78.42
2022-11-29T00:13:26.063Z,78.31
2022-11-29T00:13:36.063Z,78.21
2022-11-29T00:13:45.998Z,78.11
2022-11-29T00:13:56.000Z,78.01
2022-11-29T00:14:05.967Z,77.80
2022-11-29T00:14:16.056Z,77.70
2022-11-29T00:14:25.985Z,77.59
2022-11-29T00:14:35.952Z,77.59
2022-11-29T00:14:46.513Z,77.59
2022-11-29T00:14:55.990Z,77.80
2022-11-29T00:15:06.033Z,78.01
2022-11-29T00:15:15.968Z,78.01
2022-11-29T00:15:26.075Z,78.11
2022-11-29T00:15:35.960Z,78.42
2022-11-29T00:15:46.025Z,78.52
2022-11-29T00:15:56.044Z,78.31
2022-11-29T00:16:06.008Z,78.11
2022-11-29T00:16:15.977Z,78.01
2022-11-29T00:16:26.117Z,78.11
2022-11-29T00:16:36.105Z,78.11
2022-11-29T00:16:46.121Z,78.11
2022-11-29T00:16:56.018Z,78.21
2022-11-29T00:17:06.015Z,78.21
2022-11-29T00:17:16.084Z,78.31
2022-11-29T00:17:25.988Z,78.21
2022-11-29T00:17:36.018Z,78.11
2022-11-29T00:17:46.059Z,78.01
2022-11-29T00:17:56.021Z,77.91
2022-11-29T00:18:06.032Z,77.91
2022-11-29T00:18:16.046Z,77.80
2022-11-29T00:18:26.017Z,77.80
2022-11-29T00:18:36.008Z,77.91
2022-11-29T00:18:46.027Z,78.21
2022-11-29T00:18:56.030Z,78.31
2022-11-29T00:19:05.977Z,78.52
2022-11-29T00:19:16.044Z,78.52
2022-11-29T00:19:26.046Z,78.52
2022-11-29T00:19:36.085Z,78.63
2022-11-29T00:19:45.955Z,78.63
2022-11-29T00:19:56.002Z,78.73
2022-11-29T00:20:05.973Z,78.73
2022-11-29T00:20:16.026Z,78.73
2022-11-29T00:20:25.958Z,78.73
2022-11-29T00:20:35.955Z,78.94
2022-11-29T00:20:45.998Z,79.04
2022-11-29T00:20:55.990Z,79.04
2022-11-29T00:21:05.955Z,79.14
2022-11-29T00:21:16.042Z,79.04
2022-11-29T00:21:26.044Z,79.04
2022-11-29T00:21:36.011Z,79.14
2022-11-29T00:21:46.026Z,79.14
2022-11-29T00:21:55.996Z,79.25
2022-11-29T00:22:06.047Z,79.35
2022-11-29T00:22:16.037Z,79.45
2022-11-29T00:22:25.990Z,79.66
2022-11-29T00:22:36.070Z,79.66
2022-11-29T00:22:46.042Z,79.55
2022-11-29T00:22:56.036Z,79.25
2022-11-29T00:23:05.981Z,79.04
2022-11-29T00:23:16.078Z,78.94
2022-11-29T00:23:26.073Z,78.83
2022-11-29T00:23:36.096Z,78.63
2022-11-29T00:23:45.961Z,78.42
2022-11-29T00:23:55.996Z,78.31
2022-11-29T00:24:06.043Z,78.31
2022-11-29T00:24:16.038Z,78.31
2022-11-29T00:24:26.008Z,78.31
2022-11-29T00:24:36.041Z,78.11
2022-11-29T00:24:46.347Z,78.21
2022-11-29T00:24:55.950Z,78.42
2022-11-29T00:25:05.975Z,78.52
2022-11-29T00:25:15.986Z,78.63
2022-11-29T00:25:26.079Z,78.63
2022-11-29T00:25:36.001Z,78.63
2022-11-29T00:25:45.955Z,78.63
2022-11-29T00:25:56.068Z,78.52
2022-11-29T00:26:05.996Z,78.52
2022-11-29T00:26:15.988Z,78.52
2022-11-29T00:26:25.955Z,78.42
2022-11-29T00:26:36.027Z,78.42
2022-11-29T00:26:46.002Z,78.52
2022-11-29T00:26:55.997Z,78.52
2022-11-29T00:27:06.036Z,78.63
2022-11-29T00:27:15.973Z,78.83
2022-11-29T00:27:25.969Z,78.94
2022-11-29T00:27:36.057Z,78.83
2022-11-29T00:27:46.081Z,78.83
2022-11-29T00:27:56.059Z,78.83
2022-11-29T00:28:06.026Z,78.83
2022-11-29T00:28:16.019Z,78.83
2022-11-29T00:28:25.950Z,78.83
2022-11-29T00:28:35.994Z,78.94
2022-11-29T00:28:46.036Z,79.04
2022-11-29T00:28:55.979Z,79.04
2022-11-29T00:29:06.067Z,79.14
2022-11-29T00:29:16.071Z,79.14
2022-11-29T00:29:26.011Z,78.94
2022-11-29T00:29:36.050Z,78.94
2022-11-29T00:29:46.025Z,78.94
2022-11-29T00:29:56.072Z,78.94
2022-11-29T00:30:06.005Z,78.94
2022-11-29T00:30:16.085Z,78.94
2022-11-29T00:30:26.133Z,78.94
2022-11-29T00:30:36.105Z,79.04
2022-11-29T00:30:46.116Z,79.04
2022-11-29T00:30:56.059Z,79.14
2022-11-29T00:31:06.095Z,79.25
2022-11-29T00:31:16.097Z,79.14
2022-11-29T00:31:25.977Z,79.14
2022-11-29T00:31:36.015Z,79.04
2022-11-29T00:31:46.056Z,79.14
2022-11-29T00:31:55.992Z,79.04
2022-11-29T00:32:06.036Z,78.94
2022-11-29T00:32:16.031Z,78.94
2022-11-29T00:32:26.008Z,78.94
2022-11-29T00:32:36.018Z,78.94
2022-11-29T00:32:46.065Z,78.94
2022-11-29T00:32:56.060Z,78.94
2022-11-29T00:33:06.065Z,79.04
2022-11-29T00:33:16.063Z,79.14
2022-11-29T00:33:26.083Z,79.14
2022-11-29T00:33:35.958Z,79.04
2022-11-29T00:33:46.032Z,78.94
2022-11-29T00:33:55.952Z,78.94
2022-11-29T00:34:05.975Z,78.83
2022-11-29T00:34:15.956Z,78.83
2022-11-29T00:34:25.953Z,78.94
2022-11-29T00:34:36.495Z,78.94
2022-11-29T00:34:46.274Z,79.04
2022-11-29T00:34:59.365Z,79.04
2022-11-29T00:35:09.718Z,79.04
2022-11-29T00:35:16.045Z,78.94
2022-11-29T00:35:26.064Z,79.04
2022-11-29T00:35:36.083Z,79.04
2022-11-29T00:35:45.970Z,79.14
2022-11-29T00:35:56.069Z,79.14
2022-11-29T00:36:06.073Z,79.04
2022-11-29T00:36:15.979Z,79.04
2022-11-29T00:36:26.045Z,79.14
2022-11-29T00:36:36.017Z,79.25
2022-11-29T00:36:46.029Z,79.35
2022-11-29T00:36:55.966Z,79.35
2022-11-29T00:37:06.083Z,79.45
2022-11-29T00:37:15.955Z,79.55
2022-11-29T00:37:26.017Z,79.66
2022-11-29T00:37:36.002Z,79.86
2022-11-29T00:37:45.959Z,79.76
2022-11-29T00:37:56.022Z,79.66
2022-11-29T00:38:05.997Z,79.55
2022-11-29T00:38:15.979Z,79.45
2022-11-29T00:38:26.018Z,79.45
2022-11-29T00:38:35.983Z,79.55
2022-11-29T00:38:45.973Z,79.55
2022-11-29T00:38:56.034Z,79.66
2022-11-29T00:39:06.039Z,79.66
2022-11-29T00:39:16.056Z,79.66
2022-11-29T00:39:26.008Z,79.66
2022-11-29T00:39:36.009Z,79.66
2022-11-29T00:39:46.094Z,79.66
2022-11-29T00:39:55.954Z,79.66
2022-11-29T00:40:05.996Z,79.55
2022-11-29T00:40:16.071Z,79.45
2022-11-29T00:40:26.053Z,79.35
2022-11-29T00:40:35.993Z,79.35
2022-11-29T00:40:45.991Z,79.45
2022-11-29T00:40:56.015Z,79.55
2022-11-29T00:41:05.949Z,79.55
2022-11-29T00:41:16.494Z,79.76
2022-11-29T00:41:26.021Z,79.76
2022-11-29T00:41:36.040Z,79.66
2022-11-29T00:41:46.069Z,79.66
2022-11-29T00:41:56.053Z,79.76
2022-11-29T00:42:06.018Z,79.76
2022-11-29T00:42:16.002Z,79.86
2022-11-29T00:42:25.981Z,80.07
2022-11-29T00:42:36.069Z,80.18
2022-11-29T00:42:46.031Z,80.28
2022-11-29T00:42:56.017Z,80.28
2022-11-29T00:43:05.981Z,80.07
2022-11-29T00:43:16.006Z,79.97
2022-11-29T00:43:25.978Z,79.97
2022-11-29T00:43:36.000Z,79.86
2022-11-29T00:43:45.988Z,79.97
2022-11-29T00:44:29.904Z,79.86
2022-11-29T00:44:30.099Z,79.86
2022-11-29T00:44:30.308Z,79.86
2022-11-29T00:44:30.522Z,79.86
2022-11-29T00:44:35.972Z,79.86
2022-11-29T00:44:46.146Z,79.97
2022-11-29T00:44:56.009Z,80.07
2022-11-29T00:45:06.011Z,80.18
2022-11-29T00:45:16.058Z,80.18
2022-11-29T00:45:25.965Z,80.18
2022-11-29T00:45:36.031Z,80.07
2022-11-29T00:45:46.022Z,80.07
2022-11-29T00:45:56.130Z,80.07
2022-11-29T00:46:06.093Z,80.07
2022-11-29T00:46:15.995Z,80.07
2022-11-29T00:46:26.109Z,79.97
2022-11-29T00:46:36.018Z,79.97
2022-11-29T00:46:46.038Z,79.86
2022-11-29T00:46:55.986Z,79.86
2022-11-29T00:47:05.990Z,79.86
2022-11-29T00:47:16.045Z,79.97
2022-11-29T00:47:26.047Z,80.07
2022-11-29T00:47:35.998Z,79.86
2022-11-29T00:47:45.963Z,79.86
2022-11-29T00:47:55.979Z,79.86
2022-11-29T00:48:06.005Z,79.97
2022-11-29T00:48:16.022Z,79.97
2022-11-29T00:48:25.967Z,80.07
2022-11-29T00:48:36.089Z,80.18
2022-11-29T00:48:46.077Z,80.28
2022-11-29T00:48:56.091Z,80.28
2022-11-29T00:49:06.021Z,80.28
2022-11-29T00:49:16.038Z,80.38
2022-11-29T00:49:26.042Z,80.48
2022-11-29T00:49:36.006Z,80.48
2022-11-29T00:49:46.051Z,80.38
2022-11-29T00:49:56.035Z,80.28
2022-11-29T00:50:06.028Z,80.28
2022-11-29T00:50:16.029Z,80.28
2022-11-29T00:50:26.075Z,80.28
2022-11-29T00:50:36.028Z,80.38
2022-11-29T00:50:46.089Z,80.48
2022-11-29T00:50:56.043Z,80.58
2022-11-29T00:51:06.064Z,80.69
2022-11-29T00:51:16.037Z,80.79
2022-11-29T00:51:26.067Z,80.79
2022-11-29T00:51:36.005Z,80.79
2022-11-29T00:51:46.005Z,80.79
2022-11-29T00:51:56.016Z,80.69
2022-11-29T00:52:06.043Z,80.69
2022-11-29T00:52:16.019Z,80.69
2022-11-29T00:52:25.986Z,80.69
2022-11-29T00:52:36.041Z,80.69
2022-11-29T00:52:46.051Z,80.90
2022-11-29T00:52:55.986Z,81.00
2022-11-29T00:53:05.972Z,81.00
2022-11-29T00:53:15.956Z,81.00
2022-11-29T00:53:25.983Z,80.90
2022-11-29T00:53:35.978Z,80.90
2022-11-29T00:53:46.077Z,80.79
2022-11-29T00:53:55.998Z,80.69
2022-11-29T00:54:06.070Z,80.58
2022-11-29T00:54:16.083Z,80.48
2022-11-29T00:54:26.047Z,80.48
2022-11-29T00:54:36.076Z,80.38
2022-11-29T00:54:46.257Z,80.38
2022-11-29T00:54:56.028Z,80.28
2022-11-29T00:55:06.096Z,80.28
2022-11-29T00:55:16.021Z,80.38
2022-11-29T00:55:26.086Z,80.38
2022-11-29T00:55:36.085Z,80.38
2022-11-29T00:55:45.992Z,80.18
2022-11-29T00:55:56.014Z,80.07
2022-11-29T00:56:05.985Z,79.86
2022-11-29T00:56:16.092Z,79.86
2022-11-29T00:56:26.000Z,79.97
2022-11-29T00:56:35.958Z,80.07
2022-11-29T00:56:46.068Z,80.18
2022-11-29T00:56:55.986Z,80.18
2022-11-29T00:57:05.957Z,80.18
2022-11-29T00:57:15.968Z,80.28
2022-11-29T00:57:25.955Z,80.28
2022-11-29T00:57:36.031Z,80.28
2022-11-29T00:57:46.077Z,80.28
2022-11-29T00:57:55.974Z,80.28
2022-11-29T00:58:06.077Z,80.38
2022-11-29T00:58:16.077Z,80.28
2022-11-29T00:58:26.056Z,80.28
2022-11-29T00:58:36.001Z,80.28
2022-11-29T00:58:46.024Z,80.28
2022-11-29T00:58:55.994Z,80.38
2022-11-29T00:59:06.055Z,80.48
2022-11-29T00:59:16.065Z,80.48
2022-11-29T00:59:26.002Z,80.38
2022-11-29T00:59:36.082Z,80.28
2022-11-29T00:59:45.966Z,80.28
2022-11-29T00:59:56.022Z,80.28
2022-11-29T01:00:05.979Z,80.18
2022-11-29T01:00:16.029Z,80.18
2022-11-29T01:00:26.028Z,80.18
2022-11-29T01:00:36.016Z,80.18
2022-11-29T01:00:46.004Z,80.18
2022-11-29T01:00:56.045Z,80.28
2022-11-29T01:01:06.170Z,80.38
2022-11-29T01:01:16.033Z,80.48
2022-11-29T01:01:26.107Z,80.69
2022-11-29T01:01:36.056Z,80.90
2022-11-29T01:01:46.010Z,80.90
2022-11-29T01:01:56.269Z,80.90
2022-11-29T01:02:06.041Z,80.90
2022-11-29T01:02:16.076Z,80.90
2022-11-29T01:02:26.059Z,80.90
2022-11-29T01:02:36.114Z,80.90
2022-11-29T01:02:46.084Z,80.79
2022-11-29T01:02:56.031Z,80.79
2022-11-29T01:03:06.075Z,80.58
2022-11-29T01:03:15.974Z,80.48
2022-11-29T01:03:26.015Z,80.48
2022-11-29T01:03:35.984Z,80.48
2022-11-29T01:03:46.010Z,80.38
2022-11-29T01:03:56.015Z,80.38
2022-11-29T01:04:06.087Z,80.38
2022-11-29T01:04:16.061Z,80.38
2022-11-29T01:04:25.960Z,80.28
2022-11-29T01:04:36.017Z,80.48
2022-11-29T01:04:46.313Z,80.58
2022-11-29T01:04:55.995Z,80.69
2022-11-29T01:05:06.018Z,80.69
2022-11-29T01:05:16.088Z,80.79
2022-11-29T01:05:26.051Z,81.00
2022-11-29T01:05:36.015Z,81.00
2022-11-29T01:05:45.971Z,81.00
2022-11-29T01:05:55.981Z,81.00
2022-11-29T01:06:06.046Z,80.90
2022-11-29T01:06:16.018Z,80.79
2022-11-29T01:06:26.064Z,80.69
2022-11-29T01:06:36.048Z,80.69
2022-11-29T01:06:46.055Z,80.69
2022-11-29T01:06:55.977Z,80.69
2022-11-29T01:07:06.076Z,80.69
2022-11-29T01:07:16.152Z,80.69
2022-11-29T01:07:26.027Z,80.69
2022-11-29T01:07:36.052Z,80.69
2022-11-29T01:07:46.054Z,80.69
2022-11-29T01:07:56.007Z,80.58
2022-11-29T01:08:06.018Z,80.69
2022-11-29T01:08:15.989Z,80.69
2022-11-29T01:08:25.965Z,80.69
2022-11-29T01:08:35.986Z,80.69
2022-11-29T01:08:46.002Z,80.69
2022-11-29T01:08:55.980Z,80.69
2022-11-29T01:09:06.060Z,80.58
2022-11-29T01:09:16.030Z,80.48
2022-11-29T01:09:26.055Z,80.48
2022-11-29T01:09:36.081Z,80.48
2022-11-29T01:09:45.968Z,80.48
2022-11-29T01:09:55.958Z,80.38
2022-11-29T01:10:05.973Z,80.38
2022-11-29T01:10:15.998Z,80.58
2022-11-29T01:10:25.965Z,80.79
2022-11-29T01:10:35.959Z,80.79
2022-11-29T01:10:46.067Z,80.79
2022-11-29T01:10:56.044Z,80.69
2022-11-29T01:11:05.969Z,80.69
2022-11-29T01:11:15.969Z,80.69
2022-11-29T01:11:26.024Z,80.69
2022-11-29T01:11:36.040Z,80.69
2022-11-29T01:11:45.953Z,80.69
2022-11-29T01:11:56.080Z,80.90
2022-11-29T01:12:05.966Z,81.00
2022-11-29T01:12:16.005Z,81.21
2022-11-29T01:12:26.009Z,81.41
2022-11-29T01:12:36.024Z,81.62
2022-11-29T01:12:46.012Z,81.62
2022-11-29T01:12:56.059Z,81.51
2022-11-29T01:13:06.080Z,81.31
2022-11-29T01:13:16.060Z,81.31
2022-11-29T01:13:26.040Z,81.21
2022-11-29T01:13:36.111Z,81.10
2022-11-29T01:13:45.987Z,81.10
2022-11-29T01:13:56.072Z,81.10
2022-11-29T01:14:06.030Z,81.10
2022-11-29T01:14:15.970Z,81.10
2022-11-29T01:14:26.047Z,81.10
2022-11-29T01:14:36.043Z,81.21
2022-11-29T01:14:46.337Z,81.31
2022-11-29T01:14:55.962Z,81.31
2022-11-29T01:15:06.056Z,81.31
2022-11-29T01:15:15.990Z,81.41
2022-11-29T01:15:26.029Z,81.62
2022-11-29T01:15:36.023Z,81.82
2022-11-29T01:15:46.055Z,82.14
2022-11-29T01:15:55.984Z,82.34
2022-11-29T01:16:06.085Z,82.45
2022-11-29T01:16:16.221Z,82.45
2022-11-29T01:16:26.109Z,82.55
2022-11-29T01:16:36.096Z,82.45
2022-11-29T01:16:46.047Z,82.45
2022-11-29T01:16:56.043Z,82.45
2022-11-29T01:17:06.023Z,82.45
2022-11-29T01:17:16.000Z,82.45
2022-11-29T01:17:25.998Z,82.45
2022-11-29T01:17:35.980Z,82.45
2022-11-29T01:17:46.002Z,82.55
2022-11-29T01:17:56.106Z,82.65
2022-11-29T01:18:06.021Z,82.75
2022-11-29T01:18:16.061Z,82.86
2022-11-29T01:18:26.044Z,82.96
2022-11-29T01:18:36.011Z,83.06
2022-11-29T01:18:45.986Z,83.17
2022-11-29T01:18:55.955Z,83.17
2022-11-29T01:19:06.021Z,83.27
2022-11-29T01:19:15.982Z,83.27
2022-11-29T01:19:25.998Z,83.37
2022-11-29T01:19:35.978Z,83.37
2022-11-29T01:19:50.578Z,83.48
2022-11-29T01:19:55.986Z,83.58
2022-11-29T01:20:06.029Z,83.68
2022-11-29T01:20:16.054Z,83.85
2022-11-29T01:20:26.078Z,83.99
2022-11-29T01:20:35.975Z,83.95
2022-11-29T01:20:45.967Z,83.95
2022-11-29T01:20:55.972Z,83.95
2022-11-29T01:21:06.080Z,83.89
2022-11-29T01:21:16.115Z,83.75
2022-11-29T01:21:25.995Z,83.68
2022-11-29T01:21:36.089Z,83.54
2022-11-29T01:21:46.014Z,83.58
2022-11-29T01:21:55.958Z,83.64
2022-11-29T01:22:06.007Z,83.64
2022-11-29T01:22:16.042Z,83.64
2022-11-29T01:22:25.957Z,83.75
2022-11-29T01:22:35.956Z,83.75
2022-11-29T01:22:45.951Z,83.78
2022-11-29T01:22:56.070Z,83.75
2022-11-29T01:23:05.976Z,83.75
2022-11-29T01:23:16.072Z,83.64
2022-11-29T01:23:26.052Z,83.64
2022-11-29T01:23:36.050Z,83.64
2022-11-29T01:23:45.948Z,83.64
2022-11-29T01:23:56.056Z,83.64
2022-11-29T01:24:05.967Z,83.54
2022-11-29T01:24:16.006Z,83.48
2022-11-29T01:24:26.034Z,83.44
2022-11-29T01:24:36.088Z,83.33
2022-11-29T01:24:46.382Z,83.23
2022-11-29T01:24:56.014Z,83.23
2022-11-29T01:25:05.961Z,83.23
2022-11-29T01:25:16.010Z,83.13
2022-11-29T01:25:26.002Z,83.13
2022-11-29T01:25:36.004Z,83.27
2022-11-29T01:25:46.079Z,83.33
2022-11-29T01:25:55.978Z,83.33
2022-11-29T01:26:06.053Z,83.44
2022-11-29T01:26:16.046Z,83.44
2022-11-29T01:26:26.051Z,83.44
2022-11-29T01:26:35.998Z,83.54
2022-11-29T01:26:45.978Z,83.75
2022-11-29T01:26:56.032Z,83.95
2022-11-29T01:27:05.981Z,84.16
2022-11-29T01:27:16.000Z,84.27
2022-11-29T01:27:25.979Z,84.47
2022-11-29T01:27:36.014Z,84.72
2022-11-29T01:27:45.998Z,84.67
2022-11-29T01:27:56.038Z,84.67
2022-11-29T01:28:05.998Z,84.67
2022-11-29T01:28:16.060Z,84.67
2022-11-29T01:28:26.060Z,84.72
2022-11-29T01:28:36.074Z,84.61
2022-11-29T01:28:46.049Z,84.51
2022-11-29T01:28:55.978Z,84.30
2022-11-29T01:29:06.015Z,84.20
2022-11-29T01:29:15.987Z,83.99
2022-11-29T01:29:26.013Z,83.89
2022-11-29T01:29:36.062Z,83.75
2022-11-29T01:29:46.071Z,83.58
2022-11-29T01:29:56.002Z,83.37
2022-11-29T01:30:05.960Z,83.27
2022-11-29T01:30:15.970Z,83.17
2022-11-29T01:30:26.120Z,83.03
2022-11-29T01:30:36.069Z,82.92
2022-11-29T01:30:46.132Z,82.86
2022-11-29T01:30:56.089Z,82.75
2022-11-29T01:31:06.064Z,82.61
2022-11-29T01:31:16.076Z,82.51
2022-11-29T01:31:26.072Z,82.55
2022-11-29T01:31:36.088Z,82.71
2022-11-29T01:31:46.069Z,82.82
2022-11-29T01:31:56.011Z,83.06
2022-11-29T01:32:06.074Z,83.23
2022-11-29T01:32:15.973Z,83.44
2022-11-29T01:32:26.069Z,83.75
2022-11-29T01:32:36.009Z,83.95
2022-11-29T01:32:46.036Z,84.06
2022-11-29T01:32:56.052Z,84.16
2022-11-29T01:33:06.047Z,84.27
2022-11-29T01:33:15.985Z,84.36
2022-11-29T01:33:25.974Z,84.36
2022-11-29T01:33:35.985Z,84.47
2022-11-29T01:33:46.003Z,84.67
2022-11-29T01:33:56.071Z,84.78
2022-11-29T01:34:05.976Z,84.99
2022-11-29T01:34:16.006Z,85.09
2022-11-29T01:34:25.957Z,85.09
2022-11-29T01:34:35.964Z,84.99
2022-11-29T01:34:46.318Z,84.99
2022-11-29T01:34:56.079Z,84.88
2022-11-29T01:35:06.069Z,84.88
2022-11-29T01:35:16.065Z,84.88
2022-11-29T01:35:26.018Z,84.88
2022-11-29T01:35:35.974Z,84.88
2022-11-29T01:35:45.956Z,84.99
2022-11-29T01:35:55.973Z,85.09
2022-11-29T01:36:06.068Z,85.39
2022-11-29T01:36:16.061Z,85.50
2022-11-29T01:36:26.062Z,85.60
2022-11-29T01:36:35.994Z,85.50
2022-11-29T01:36:46.031Z,85.39
2022-11-29T01:36:55.986Z,85.19
2022-11-29T01:37:06.079Z,85.13
2022-11-29T01:37:16.091Z,84.99
2022-11-29T01:37:26.079Z,84.99
2022-11-29T01:37:36.084Z,85.02
2022-11-29T01:37:46.043Z,84.99
2022-11-29T01:37:56.042Z,84.92
2022-11-29T01:38:05.950Z,84.88
2022-11-29T01:38:16.049Z,84.81
2022-11-29T01:38:26.080Z,84.81
2022-11-29T01:38:36.030Z,84.78
2022-11-29T01:38:46.040Z,84.88
2022-11-29T01:38:56.054Z,85.02
2022-11-29T01:39:06.091Z,85.13
2022-11-29T01:39:16.012Z,85.19
2022-11-29T01:39:25.990Z,85.23
2022-11-29T01:39:36.079Z,85.23
2022-11-29T01:39:46.014Z,85.33
2022-11-29T01:39:55.968Z,85.33
2022-11-29T01:40:05.974Z,85.33
2022-11-29T01:40:16.052Z,85.44
2022-11-29T01:40:25.991Z,85.44
2022-11-29T01:40:36.019Z,85.39
2022-11-29T01:40:45.951Z,85.33
2022-11-29T01:40:56.061Z,85.33
2022-11-29T01:41:06.037Z,85.23
2022-11-29T01:41:15.975Z,85.23
2022-11-29T01:41:25.995Z,85.23
2022-11-29T01:41:36.072Z,85.33
2022-11-29T01:41:46.074Z,85.33
2022-11-29T01:41:55.949Z,85.33
2022-11-29T01:42:06.095Z,85.33
2022-11-29T01:42:16.031Z,85.33
2022-11-29T01:42:25.967Z,85.33
2022-11-29T01:42:36.086Z,85.44
2022-11-29T01:42:46.048Z,85.54
2022-11-29T01:42:56.015Z,85.54
2022-11-29T01:43:06.009Z,85.54
2022-11-29T01:43:16.062Z,85.64
2022-11-29T01:43:26.054Z,85.75
2022-11-29T01:43:35.955Z,85.85
2022-11-29T01:43:45.987Z,85.95
2022-11-29T01:43:55.984Z,86.05
2022-11-29T01:44:06.034Z,86.16
2022-11-29T01:44:16.040Z,86.16
2022-11-29T01:44:25.970Z,86.26
2022-11-29T01:44:36.028Z,86.26
2022-11-29T01:44:46.262Z,86.36
2022-11-29T01:44:56.013Z,86.36
2022-11-29T01:45:05.949Z,86.36
2022-11-29T01:45:16.062Z,86.47
2022-11-29T01:45:25.969Z,86.78
2022-11-29T01:45:36.036Z,86.98
2022-11-29T01:45:46.016Z,87.19
2022-11-29T01:45:56.095Z,87.40
2022-11-29T01:46:06.038Z,87.40
2022-11-29T01:46:16.013Z,87.50
2022-11-29T01:46:26.121Z,87.50
2022-11-29T01:46:35.961Z,87.50
2022-11-29T01:46:46.073Z,87.50
2022-11-29T01:46:56.077Z,87.50
2022-11-29T01:47:06.069Z,87.50
2022-11-29T01:47:16.093Z,87.40
2022-11-29T01:47:26.012Z,87.40
2022-11-29T01:47:35.963Z,87.40
2022-11-29T01:47:46.073Z,87.40
2022-11-29T01:47:55.985Z,87.40
2022-11-29T01:48:06.090Z,87.40
2022-11-29T01:48:16.065Z,87.50
2022-11-29T01:48:26.008Z,87.60
2022-11-29T01:48:35.955Z,87.71
2022-11-29T01:48:46.015Z,87.81
2022-11-29T01:48:56.050Z,87.81
2022-11-29T01:49:06.075Z,87.81
2022-11-29T01:49:16.044Z,87.81
2022-11-29T01:49:25.958Z,87.71
2022-11-29T01:49:36.026Z,87.71
2022-11-29T01:49:45.959Z,87.71
2022-11-29T01:49:55.980Z,87.60
2022-11-29T01:50:06.051Z,87.60
2022-11-29T01:50:16.098Z,87.50
2022-11-29T01:50:26.032Z,87.50
2022-11-29T01:50:35.967Z,87.50
2022-11-29T01:50:45.974Z,87.40
2022-11-29T01:50:56.055Z,87.40
2022-11-29T01:51:06.058Z,87.40
2022-11-29T01:51:16.013Z,87.29
2022-11-29T01:51:26.001Z,87.29
2022-11-29T01:51:36.012Z,87.29
2022-11-29T01:51:45.977Z,87.19
2022-11-29T01:51:55.952Z,87.19
2022-11-29T01:52:06.081Z,87.29
2022-11-29T01:52:16.060Z,87.29
2022-11-29T01:52:26.067Z,87.29
2022-11-29T01:52:36.019Z,87.29
2022-11-29T01:52:46.038Z,87.40
2022-11-29T01:52:55.989Z,87.50
2022-11-29T01:53:06.085Z,87.60
2022-11-29T01:53:15.965Z,87.60
2022-11-29T01:53:26.004Z,87.71
2022-11-29T01:53:36.079Z,87.71
2022-11-29T01:53:45.990Z,87.81
2022-11-29T01:53:55.962Z,87.81
2022-11-29T01:54:05.972Z,87.81
2022-11-29T01:54:15.951Z,87.81
2022-11-29T01:54:26.071Z,87.81
2022-11-29T01:54:36.037Z,87.81
2022-11-29T01:54:46.267Z,87.92
2022-11-29T01:54:55.969Z,87.92
2022-11-29T01:55:06.037Z,87.92
2022-11-29T01:55:16.025Z,87.92
2022-11-29T01:55:26.064Z,87.81
2022-11-29T01:55:36.059Z,87.71
2022-11-29T01:55:46.148Z,87.60
2022-11-29T01:55:56.063Z,87.60
2022-11-29T01:56:06.112Z,87.50
2022-11-29T01:56:16.083Z,87.50
2022-11-29T01:56:26.045Z,87.50
2022-11-29T01:56:35.981Z,87.50
2022-11-29T01:56:46.037Z,87.50
2022-11-29T01:56:56.003Z,87.50
2022-11-29T01:57:06.056Z,87.50
2022-11-29T01:57:15.964Z,87.60
2022-11-29T01:57:25.968Z,87.71
2022-11-29T01:57:36.000Z,87.92
2022-11-29T01:57:45.984Z,88.02
2022-11-29T01:57:56.063Z,88.22
2022-11-29T01:58:05.976Z,88.32
2022-11-29T01:58:16.048Z,88.43
2022-11-29T01:58:25.960Z,88.53
2022-11-29T01:58:36.059Z,88.53
2022-11-29T01:58:45.953Z,88.64
2022-11-29T01:58:55.963Z,88.64
2022-11-29T01:59:06.017Z,88.64
2022-11-29T01:59:16.079Z,88.74
2022-11-29T01:59:25.998Z,88.74
2022-11-29T01:59:35.965Z,88.84
2022-11-29T01:59:45.963Z,88.95
2022-11-29T01:59:56.021Z,89.05
2022-11-29T02:00:06.060Z,89.15
2022-11-29T02:00:16.088Z,89.25
2022-11-29T02:00:26.026Z,89.25
2022-11-29T02:00:36.024Z,89.25
2022-11-29T02:00:45.964Z,89.29
2022-11-29T02:00:56.103Z,89.25
2022-11-29T02:01:05.999Z,89.15
2022-11-29T02:01:16.043Z,89.15
2022-11-29T02:01:26.140Z,89.15
2022-11-29T02:01:36.084Z,89.15
2022-11-29T02:01:46.158Z,89.15
2022-11-29T02:01:56.015Z,89.09
2022-11-29T02:02:06.160Z,89.05
2022-11-29T02:02:16.112Z,89.09
2022-11-29T02:02:26.008Z,88.98
2022-11-29T02:02:36.211Z,88.98
2022-11-29T02:02:46.192Z,88.98
2022-11-29T02:02:56.008Z,88.98
2022-11-29T02:03:05.949Z,88.89
2022-11-29T02:03:16.032Z,88.89
2022-11-29T02:03:26.077Z,88.98
2022-11-29T02:03:36.001Z,88.98
2022-11-29T02:03:46.054Z,89.09
2022-11-29T02:03:56.056Z,89.09
2022-11-29T02:04:06.011Z,89.09
2022-11-29T02:04:16.009Z,89.09
2022-11-29T02:04:25.984Z,89.19
2022-11-29T02:04:36.033Z,89.19
2022-11-29T02:04:46.197Z,89.19
2022-11-29T02:04:56.011Z,89.19
2022-11-29T02:05:05.960Z,89.19
2022-11-29T02:05:15.956Z,89.19
2022-11-29T02:05:25.960Z,89.19
2022-11-29T02:05:36.030Z,89.19
2022-11-29T02:05:45.975Z,89.19
2022-11-29T02:05:56.024Z,89.19
2022-11-29T02:06:05.964Z,89.09
2022-11-29T02:06:15.984Z,89.09
2022-11-29T02:06:25.976Z,88.98
2022-11-29T02:06:35.960Z,88.98
2022-11-29T02:06:45.990Z,88.98
2022-11-29T02:06:56.032Z,88.98
2022-11-29T02:07:06.076Z,88.89
2022-11-29T02:07:15.963Z,88.89
2022-11-29T02:07:26.025Z,88.89
2022-11-29T02:07:36.061Z,88.98
2022-11-29T02:07:46.152Z,88.98
2022-11-29T02:07:56.082Z,88.98
2022-11-29T02:08:05.951Z,89.09
2022-11-29T02:08:15.951Z,89.09
2022-11-29T02:08:25.992Z,89.09
2022-11-29T02:08:35.995Z,89.09
2022-11-29T02:08:46.044Z,88.89